Time;durP1;ratioP1;P1;durP2;ratioP2;P2;SDS_P1;SDS_P2;PMS_P1;PMS_P2;Temp;Humidity;BMP_temperature;BMP_pressure;BME280_temperature;BME280_humidity;BME280_pressure;Samples;Min_cycle;Max_cycle;Signal;HPM_P1;HPM_P2
2023/01/16 00:01:24;;;;;;;3.63;1.33;;;4.90;99.90;;;;;;5041782;28;20490;-67
2023/01/16 00:03:50;;;;;;;3.47;1.17;;;4.90;99.90;;;;;;5042584;28;20440;-67
2023/01/16 00:06:16;;;;;;;2.87;1.13;;;4.90;99.90;;;;;;5041185;28;20051;-67
2023/01/16 00:08:43;;;;;;;4.90;1.70;;;4.90;99.90;;;;;;5045753;28;20286;-67
2023/01/16 00:11:09;;;;;;;4.47;1.42;;;4.90;99.90;;;;;;5041135;28;20045;-67
2023/01/16 00:13:35;;;;;;;2.65;1.60;;;4.90;99.90;;;;;;5040321;28;20398;-67
2023/01/16 00:16:01;;;;;;;4.93;1.80;;;4.90;99.90;;;;;;5043187;28;20233;-67
2023/01/16 00:18:26;;;;;;;8.43;2.17;;;4.90;99.90;;;;;;5039941;28;20124;-67
2023/01/16 00:20:52;;;;;;;5.07;1.80;;;4.80;99.90;;;;;;5042010;28;20427;-67
2023/01/16 00:23:18;;;;;;;4.70;1.73;;;4.80;99.90;;;;;;5040716;28;20064;-67
2023/01/16 00:25:44;;;;;;;3.90;1.70;;;4.90;99.90;;;;;;5042194;28;20106;-67
2023/01/16 00:28:12;;;;;;;4.28;2.03;;;4.90;99.90;;;;;;5040194;28;20044;-67
2023/01/16 00:30:38;;;;;;;5.13;2.00;;;4.80;99.90;;;;;;5036777;28;20135;-67
2023/01/16 00:33:04;;;;;;;6.72;1.95;;;4.90;99.90;;;;;;5039878;28;20033;-67
2023/01/16 00:35:30;;;;;;;4.25;1.70;;;4.90;99.90;;;;;;5041397;28;20169;-67
2023/01/16 00:37:56;;;;;;;4.18;1.80;;;4.90;99.90;;;;;;5027574;28;20059;-67
2023/01/16 00:40:22;;;;;;;4.87;2.10;;;4.80;99.90;;;;;;5037835;28;20040;-67
2023/01/16 00:42:48;;;;;;;4.65;2.30;;;4.80;99.90;;;;;;5041834;28;20059;-67
2023/01/16 00:45:14;;;;;;;7.53;2.13;;;4.80;99.90;;;;;;5040192;28;20052;-67
2023/01/16 00:47:39;;;;;;;3.83;1.97;;;4.80;99.90;;;;;;5038508;28;20041;-67
2023/01/16 00:50:05;;;;;;;3.13;1.93;;;4.80;99.90;;;;;;5037862;28;20032;-67
2023/01/16 00:52:31;;;;;;;3.95;1.73;;;4.80;99.90;;;;;;5029423;28;20042;-68
2023/01/16 00:54:57;;;;;;;4.47;2.07;;;4.70;99.90;;;;;;5038009;28;20710;-68
2023/01/16 00:57:22;;;;;;;3.50;1.90;;;4.70;99.90;;;;;;5041387;28;20044;-68
2023/01/16 00:59:51;;;;;;;4.40;1.93;;;4.70;99.90;;;;;;5039275;28;20045;-68
2023/01/16 01:02:17;;;;;;;4.97;2.05;;;4.70;99.90;;;;;;5040953;28;20044;-68
2023/01/16 01:04:42;;;;;;;3.23;1.80;;;4.70;99.90;;;;;;5037445;28;20037;-68
2023/01/16 01:07:08;;;;;;;4.33;1.77;;;4.70;99.90;;;;;;5044201;28;20113;-68
2023/01/16 01:09:35;;;;;;;3.17;1.73;;;4.70;99.90;;;;;;5042265;28;20145;-68
2023/01/16 01:12:00;;;;;;;;;;;4.70;99.90;;;;;;5037583;28;20045;-67
2023/01/16 01:14:26;;;;;;;3.92;1.65;;;4.70;99.90;;;;;;5039278;28;20358;-68
2023/01/16 01:16:52;;;;;;;4.82;2.60;;;4.70;99.90;;;;;;5037421;28;20045;-68
2023/01/16 01:19:18;;;;;;;3.93;1.80;;;4.60;99.90;;;;;;5037363;28;20041;-68
2023/01/16 01:21:43;;;;;;;3.07;1.90;;;4.60;99.90;;;;;;5040391;28;20482;-68
2023/01/16 01:24:09;;;;;;;7.93;2.10;;;4.70;99.90;;;;;;5035475;28;20491;-68
2023/01/16 01:26:35;;;;;;;2.97;1.90;;;4.60;99.90;;;;;;5039956;28;20041;-68
2023/01/16 01:29:01;;;;;;;4.15;1.55;;;4.60;99.90;;;;;;5039817;28;20486;-68
2023/01/16 01:31:27;;;;;;;5.53;1.85;;;4.60;99.90;;;;;;5032070;28;20798;-68
2023/01/16 01:33:53;;;;;;;3.03;1.67;;;4.60;99.90;;;;;;5040524;28;20076;-68
2023/01/16 01:36:18;;;;;;;2.97;1.70;;;4.60;99.90;;;;;;5037388;28;20360;-68
2023/01/16 01:38:46;;;;;;;3.40;1.73;;;4.60;99.90;;;;;;5038609;28;20029;-68
2023/01/16 01:41:15;;;;;;;3.53;1.90;;;4.60;99.90;;;;;;5038405;28;20040;-68
2023/01/16 01:43:52;;;;;;;4.85;1.73;;;4.60;99.90;;;;;;5037734;28;20142;-68
2023/01/16 01:46:24;;;;;;;5.95;1.73;;;4.60;99.90;;;;;;5037227;28;20049;-68
2023/01/16 01:48:56;;;;;;;4.72;1.70;;;4.60;99.90;;;;;;5039318;28;20049;-68
2023/01/16 01:51:42;;;;;;;3.63;2.05;;;4.60;99.90;;;;;;5042354;28;20060;-68
2023/01/16 01:54:13;;;;;;;3.47;1.50;;;4.50;99.90;;;;;;5036355;28;20072;-68
2023/01/16 01:56:48;;;;;;;4.53;1.70;;;4.50;99.90;;;;;;5044309;28;20497;-68
2023/01/16 01:59:20;;;;;;;3.83;1.70;;;4.50;99.90;;;;;;5049856;28;20187;-68
2023/01/16 02:01:46;;;;;;;4.00;1.45;;;4.40;99.90;;;;;;5043746;28;20103;-68
2023/01/16 02:04:25;;;;;;;4.87;1.27;;;4.40;99.90;;;;;;5043774;28;20059;-68
2023/01/16 02:06:56;;;;;;;3.97;1.50;;;4.30;99.90;;;;;;5043218;28;20297;-68
2023/01/16 02:09:23;;;;;;;5.05;2.28;;;4.30;99.90;;;;;;5042705;28;20413;-68
2023/01/16 02:11:52;;;;;;;2.65;1.50;;;4.20;99.90;;;;;;5043614;28;20048;-68
2023/01/16 02:14:18;;;;;;;3.22;1.80;;;4.20;99.90;;;;;;5038501;28;20040;-68
2023/01/16 02:20:01;;;;;;;3.00;1.48;;;4.10;99.90;;;;;;5017565;28;20048;-68
2023/01/16 02:22:46;;;;;;;3.30;1.33;;;4.10;99.90;;;;;;5045623;28;20041;-68
2023/01/16 02:25:36;;;;;;;4.85;1.38;;;4.10;99.90;;;;;;5042642;28;20094;-68
2023/01/16 02:28:40;;;;;;;3.03;1.52;;;4.10;99.90;;;;;;5044917;28;20049;-68
2023/01/16 02:31:50;;;;;;;6.57;1.30;;;4.10;99.90;;;;;;4961834;28;20453;-68
2023/01/16 02:34:49;;;;;;;4.20;1.67;;;4.10;99.90;;;;;;4950818;28;20120;-68
2023/01/16 02:37:44;;;;;;;3.80;1.58;;;4.10;99.90;;;;;;5038489;28;20189;-68
2023/01/16 02:40:37;;;;;;;7.75;1.88;;;4.10;99.90;;;;;;5036045;28;20075;-68
2023/01/16 02:43:12;;;;;;;4.13;1.13;;;4.10;99.90;;;;;;5044704;28;20040;-68
2023/01/16 02:45:51;;;;;;;3.03;1.40;;;4.10;99.90;;;;;;5045440;28;20048;-67
2023/01/16 02:48:39;;;;;;;5.40;1.45;;;4.20;99.90;;;;;;5046980;28;20048;-68
2023/01/16 02:51:28;;;;;;;3.10;1.42;;;4.20;99.90;;;;;;5045760;28;20132;-68
2023/01/16 02:53:57;;;;;;;9.50;1.80;;;4.20;99.90;;;;;;5044361;28;20407;-68
2023/01/16 02:56:31;;;;;;;4.18;1.90;;;4.20;99.90;;;;;;5045069;28;20044;-68
2023/01/16 02:58:58;;;;;;;4.75;1.20;;;4.20;99.90;;;;;;5041444;28;20178;-68
2023/01/16 03:01:23;;;;;;;3.17;1.67;;;4.20;99.90;;;;;;5045326;28;20039;-68
2023/01/16 03:04:09;;;;;;;3.57;1.50;;;4.20;99.90;;;;;;5040928;28;20041;-68
2023/01/16 03:06:49;;;;;;;4.78;1.75;;;4.30;99.90;;;;;;5024324;28;20041;-68
2023/01/16 03:09:23;;;;;;;2.83;1.40;;;4.30;99.90;;;;;;5040880;28;20185;-68
2023/01/16 03:12:25;;;;;;;6.05;1.67;;;4.30;99.90;;;;;;5042246;28;20088;-68
2023/01/16 03:15:03;;;;;;;2.45;1.48;;;4.30;99.90;;;;;;5013477;28;20052;-68
2023/01/16 03:18:19;;;;;;;4.65;1.60;;;4.30;99.90;;;;;;5044633;28;20044;-68
2023/01/16 03:21:08;;;;;;;3.17;1.30;;;4.30;99.90;;;;;;5042627;28;20053;-68
2023/01/16 03:23:41;;;;;;;4.03;1.40;;;4.30;99.90;;;;;;5043188;28;20380;-68
2023/01/16 03:26:10;;;;;;;3.75;1.73;;;4.30;99.90;;;;;;5043495;28;20033;-68
2023/01/16 03:29:03;;;;;;;3.40;1.55;;;4.40;99.90;;;;;;5047602;28;20048;-68
2023/01/16 03:31:42;;;;;;;6.13;2.25;;;4.30;99.90;;;;;;5031652;28;20495;-68
2023/01/16 03:34:31;;;;;;;3.92;1.88;;;4.30;99.90;;;;;;5040174;28;20459;-68
2023/01/16 03:37:15;;;;;;;4.22;2.10;;;4.30;99.90;;;;;;5039139;28;20067;-68
2023/01/16 03:39:50;;;;;;;3.33;1.55;;;4.30;99.90;;;;;;5045143;28;20529;-68
2023/01/16 03:42:28;;;;;;;9.32;2.15;;;4.30;99.90;;;;;;5041817;28;20041;-68
2023/01/16 03:45:01;;;;;;;7.07;3.08;;;4.40;99.90;;;;;;5045640;28;20047;-68
2023/01/16 03:47:33;;;;;;;5.32;2.30;;;4.40;99.90;;;;;;5038860;28;20032;-67
2023/01/16 03:50:03;;;;;;;4.55;2.35;;;4.40;99.90;;;;;;5046889;28;20094;-68
2023/01/16 03:52:39;;;;;;;6.53;2.63;;;4.40;99.90;;;;;;5046475;28;20391;-68
2023/01/16 03:55:20;;;;;;;8.02;2.95;;;4.40;99.90;;;;;;5042649;28;20420;-68
2023/01/16 03:57:57;;;;;;;7.63;2.83;;;4.40;99.90;;;;;;5043676;28;20037;-68
2023/01/16 04:00:28;;;;;;;6.35;2.78;;;4.40;99.90;;;;;;5045431;28;20076;-68
2023/01/16 04:03:16;;;;;;;5.15;2.67;;;4.40;99.90;;;;;;5040912;28;20052;-68
2023/01/16 04:05:50;;;;;;;9.43;2.60;;;4.40;99.90;;;;;;5042760;28;20073;-68
2023/01/16 04:08:21;;;;;;;6.68;2.58;;;4.40;99.90;;;;;;5046518;28;20134;-68
2023/01/16 04:10:49;;;;;;;6.93;2.63;;;4.40;99.90;;;;;;5048661;28;20140;-68
2023/01/16 04:13:19;;;;;;;7.05;2.38;;;4.50;99.90;;;;;;5043522;28;20060;-67
2023/01/16 04:15:50;;;;;;;5.43;2.55;;;4.40;99.90;;;;;;5046078;28;20036;-68
2023/01/16 04:18:16;;;;;;;7.63;3.22;;;4.50;99.90;;;;;;5049636;28;20072;-68
2023/01/16 04:20:45;;;;;;;12.18;3.30;;;4.50;99.90;;;;;;5043188;28;20072;-68
2023/01/16 04:23:12;;;;;;;9.02;2.97;;;4.50;99.90;;;;;;5043917;28;20485;-67
2023/01/16 04:25:38;;;;;;;7.03;2.92;;;4.50;99.90;;;;;;5044109;28;20064;-66
2023/01/16 04:28:04;;;;;;;7.33;3.43;;;4.50;99.90;;;;;;5047264;28;20037;-65
2023/01/16 04:30:29;;;;;;;8.07;3.87;;;4.60;99.90;;;;;;5038800;28;20108;-65
2023/01/16 04:32:55;;;;;;;8.77;3.17;;;4.60;99.90;;;;;;5036422;28;20041;-65
2023/01/16 04:35:21;;;;;;;9.80;4.23;;;4.60;99.90;;;;;;5045359;28;20064;-65
2023/01/16 04:37:47;;;;;;;12.20;4.18;;;4.60;99.90;;;;;;5045222;28;20273;-66
2023/01/16 04:40:12;;;;;;;8.23;3.57;;;4.60;99.90;;;;;;5037944;28;20044;-66
2023/01/16 04:42:38;;;;;;;8.90;4.20;;;4.60;99.90;;;;;;5044331;28;20329;-66
2023/01/16 04:45:04;;;;;;;9.50;3.63;;;4.60;99.90;;;;;;5025893;28;20041;-66
2023/01/16 04:47:30;;;;;;;7.32;3.63;;;4.70;99.90;;;;;;5046227;28;20383;-65
2023/01/16 04:49:55;;;;;;;7.03;3.83;;;4.60;99.90;;;;;;5046607;28;20033;-66
2023/01/16 04:52:21;;;;;;;8.63;3.60;;;4.70;99.90;;;;;;5046205;28;20048;-66
2023/01/16 04:54:46;;;;;;;17.53;4.70;;;4.60;99.90;;;;;;5044509;28;20498;-66
2023/01/16 04:57:12;;;;;;;12.50;4.73;;;4.70;99.90;;;;;;5043723;28;20348;-66
2023/01/16 04:59:38;;;;;;;11.63;4.63;;;4.70;99.90;;;;;;5040483;28;20127;-65
2023/01/16 05:02:03;;;;;;;8.83;4.93;;;4.70;99.90;;;;;;5042112;28;20036;-65
2023/01/16 05:04:29;;;;;;;8.13;4.30;;;4.60;99.90;;;;;;5046076;28;20075;-66
2023/01/16 05:06:54;;;;;;;9.53;4.67;;;4.60;99.90;;;;;;5050800;28;20402;-65
2023/01/16 05:09:20;;;;;;;12.67;4.43;;;4.60;99.90;;;;;;5047771;28;20231;-66
2023/01/16 05:11:46;;;;;;;11.13;5.03;;;4.60;99.90;;;;;;5044172;28;20095;-66
2023/01/16 05:14:11;;;;;;;9.67;4.40;;;4.60;99.90;;;;;;5041907;28;20351;-65
2023/01/16 05:16:40;;;;;;;10.40;4.87;;;4.50;99.90;;;;;;5042819;28;20462;-66
2023/01/16 05:19:06;;;;;;;14.15;5.30;;;4.50;99.90;;;;;;5045628;28;20052;-66
2023/01/16 05:21:32;;;;;;;9.67;5.10;;;4.50;99.90;;;;;;5046900;28;20367;-65
2023/01/16 05:23:57;;;;;;;9.23;4.90;;;4.40;99.90;;;;;;5038738;28;20052;-65
2023/01/16 05:26:23;;;;;;;10.50;4.63;;;4.40;99.90;;;;;;5043541;28;20126;-66
2023/01/16 05:28:49;;;;;;;9.47;5.20;;;4.30;99.90;;;;;;5044705;28;20095;-66
2023/01/16 05:31:14;;;;;;;14.83;5.00;;;4.30;99.90;;;;;;5037296;28;20049;-66
2023/01/16 05:33:40;;;;;;;10.13;4.90;;;4.30;99.90;;;;;;5045513;28;20052;-66
2023/01/16 05:36:06;;;;;;;12.60;4.30;;;4.30;99.90;;;;;;5051525;28;20281;-65
2023/01/16 05:38:32;;;;;;;18.73;5.60;;;4.20;99.90;;;;;;5041383;28;20443;-65
2023/01/16 05:40:58;;;;;;;9.63;4.80;;;4.30;99.90;;;;;;5040608;28;20052;-65
2023/01/16 05:43:24;;;;;;;11.53;5.00;;;4.30;99.90;;;;;;5041894;28;20059;-66
2023/01/16 05:45:50;;;;;;;13.88;4.95;;;4.20;99.90;;;;;;5036955;28;20286;-65
2023/01/16 05:48:16;;;;;;;9.40;5.00;;;4.20;99.90;;;;;;5038274;28;20046;-65
2023/01/16 05:50:41;;;;;;;9.40;5.37;;;4.30;99.90;;;;;;5041479;28;20770;-66
2023/01/16 05:53:07;;;;;;;12.60;5.87;;;4.30;99.90;;;;;;5045519;28;20083;-65
2023/01/16 05:55:42;;;;;;;11.80;5.37;;;4.30;99.90;;;;;;5043783;28;20033;-66
2023/01/16 05:58:10;;;;;;;12.75;6.10;;;4.30;99.90;;;;;;5043109;28;20272;-65
2023/01/16 06:00:36;;;;;;;15.57;5.85;;;4.30;99.90;;;;;;5058029;22;20127;-68
2023/01/16 06:03:01;;;;;;;13.88;5.53;;;4.30;99.90;;;;;;5044341;28;20040;-68
2023/01/16 06:05:27;;;;;;;13.73;5.30;;;4.30;99.90;;;;;;5049172;28;20047;-68
2023/01/16 06:07:56;;;;;;;14.93;6.47;;;4.20;99.90;;;;;;5052647;28;20454;-68
2023/01/16 06:10:23;;;;;;;10.60;6.03;;;4.20;99.90;;;;;;5050032;28;20033;-68
2023/01/16 06:12:48;;;;;;;14.27;5.95;;;4.20;99.90;;;;;;5049770;28;20051;-68
2023/01/16 06:15:14;;;;;;;11.60;5.90;;;4.20;99.90;;;;;;5046085;28;20052;-68
2023/01/16 06:17:40;;;;;;;13.20;5.83;;;4.30;99.90;;;;;;5047572;28;20102;-68
2023/01/16 06:20:06;;;;;;;13.03;5.70;;;4.30;99.90;;;;;;5032081;28;20044;-68
2023/01/16 06:22:32;;;;;;;10.02;5.00;;;4.30;99.90;;;;;;5037075;28;20443;-68
2023/01/16 06:24:57;;;;;;;15.20;6.23;;;4.30;99.90;;;;;;5042416;28;20079;-68
2023/01/16 06:27:23;;;;;;;14.17;5.30;;;4.30;99.90;;;;;;5037657;28;20622;-68
2023/01/16 06:29:49;;;;;;;11.87;4.70;;;4.30;99.90;;;;;;5040382;28;20491;-68
2023/01/16 06:32:16;;;;;;;11.30;5.70;;;4.20;99.90;;;;;;5031722;28;20341;-68
2023/01/16 06:34:42;;;;;;;12.13;4.80;;;4.20;99.90;;;;;;5044838;28;20049;-68
2023/01/16 06:37:08;;;;;;;9.45;5.32;;;4.20;99.90;;;;;;5045976;28;20260;-68
2023/01/16 06:39:34;;;;;;;10.13;4.90;;;4.20;99.90;;;;;;5034086;28;20454;-68
2023/01/16 06:42:00;;;;;;;11.90;4.63;;;4.10;99.90;;;;;;5043559;28;20674;-69
2023/01/16 06:44:25;;;;;;;9.13;4.82;;;4.10;99.90;;;;;;5043505;28;20044;-68
2023/01/16 06:46:51;;;;;;;8.97;4.57;;;4.10;99.90;;;;;;5042275;28;20103;-69
2023/01/16 06:49:17;;;;;;;9.67;4.37;;;4.10;99.90;;;;;;5032158;28;20045;-69
2023/01/16 06:51:43;;;;;;;12.53;5.13;;;4.00;99.90;;;;;;5045218;28;20433;-73
2023/01/16 06:54:10;;;;;;;9.90;5.07;;;4.00;99.90;;;;;;5048075;28;20044;-69
2023/01/16 06:56:35;;;;;;;15.32;5.35;;;4.00;99.90;;;;;;5043538;28;20041;-71
2023/01/16 06:59:01;;;;;;;10.90;4.17;;;4.00;99.90;;;;;;5044198;28;20041;-71
2023/01/16 07:01:27;;;;;;;9.50;5.27;;;4.00;99.90;;;;;;5046403;28;20044;-70
2023/01/16 07:03:52;;;;;;;10.03;4.47;;;4.00;99.90;;;;;;5047670;28;20032;-68
2023/01/16 07:06:18;;;;;;;9.03;3.77;;;4.00;99.90;;;;;;5047109;28;20032;-70
2023/01/16 07:08:43;;;;;;;8.07;4.23;;;3.90;99.90;;;;;;5041111;28;20041;-68
2023/01/16 07:11:09;;;;;;;6.40;3.60;;;3.90;99.90;;;;;;5045741;28;20041;-69
2023/01/16 07:13:35;;;;;;;6.43;3.43;;;3.90;99.90;;;;;;5046497;28;20445;-69
2023/01/16 07:24:12;;;;;;;8.40;3.97;;;3.80;99.90;;;;;;5050323;28;20044;-68
2023/01/16 07:26:41;;;;;;;6.68;3.33;;;3.80;99.90;;;;;;5043489;28;20068;-68
2023/01/16 07:29:07;;;;;;;10.38;3.40;;;3.80;99.90;;;;;;5037169;28;20068;-68
2023/01/16 07:31:34;;;;;;;7.97;2.83;;;3.80;99.90;;;;;;5043527;28;20041;-68
2023/01/16 07:33:59;;;;;;;8.93;3.58;;;3.80;99.90;;;;;;5046783;28;20253;-68
2023/01/16 07:36:25;;;;;;;7.63;2.90;;;3.80;99.90;;;;;;5047549;28;20171;-68
2023/01/16 07:38:51;;;;;;;5.00;3.10;;;3.80;99.90;;;;;;5034006;28;20331;-70
2023/01/16 07:41:16;;;;;;;5.27;2.57;;;3.80;99.90;;;;;;5044555;28;20044;-72
2023/01/16 07:43:42;;;;;;;8.55;3.40;;;3.80;99.90;;;;;;5046797;28;20120;-68
2023/01/16 07:46:08;;;;;;;8.80;2.83;;;3.70;99.90;;;;;;5043846;28;20045;-67
2023/01/16 07:48:34;;;;;;;8.30;3.83;;;3.70;99.90;;;;;;5047219;28;20047;-68
2023/01/16 07:51:00;;;;;;;8.43;2.80;;;3.70;99.90;;;;;;5045650;28;20285;-68
2023/01/16 07:53:28;;;;;;;7.00;3.05;;;3.70;99.90;;;;;;5041844;28;20038;-67
2023/01/16 07:55:56;;;;;;;6.07;2.42;;;3.70;99.90;;;;;;5046373;28;20260;-67
2023/01/16 07:58:23;;;;;;;6.22;2.75;;;3.70;99.90;;;;;;5050402;28;20032;-67
2023/01/16 08:00:51;;;;;;;5.50;2.40;;;3.70;99.90;;;;;;5041068;28;20047;-67
2023/01/16 08:03:16;;;;;;;6.93;2.58;;;3.80;99.90;;;;;;5044220;28;20144;-67
2023/01/16 08:05:43;;;;;;;8.10;3.90;;;3.80;99.90;;;;;;5051716;28;20124;-66
2023/01/16 08:08:09;;;;;;;5.03;2.67;;;3.80;99.90;;;;;;5047070;28;20053;-66
2023/01/16 08:10:35;;;;;;;7.32;2.63;;;3.80;99.90;;;;;;5049465;28;20040;-66
2023/01/16 08:13:01;;;;;;;7.30;2.53;;;3.80;99.90;;;;;;5042977;28;20128;-66
2023/01/16 08:15:27;;;;;;;4.67;2.00;;;3.80;99.90;;;;;;5044976;28;20045;-66
2023/01/16 08:17:52;;;;;;;6.80;2.50;;;3.80;99.90;;;;;;5045971;28;20029;-66
2023/01/16 08:20:18;;;;;;;3.70;1.93;;;3.80;99.90;;;;;;5045132;28;20755;-65
2023/01/16 08:22:49;;;;;;;5.33;2.17;;;3.80;99.90;;;;;;5047372;28;20059;-66
2023/01/16 08:25:17;;;;;;;4.65;2.38;;;3.90;99.90;;;;;;5040691;28;20111;-65
2023/01/16 08:27:43;;;;;;;5.55;2.33;;;3.90;99.90;;;;;;5038972;28;20483;-66
2023/01/16 08:30:10;;;;;;;7.35;2.25;;;3.90;99.90;;;;;;5044871;28;20045;-66
2023/01/16 08:32:35;;;;;;;4.85;1.95;;;3.90;99.90;;;;;;5044087;28;20106;-66
2023/01/16 08:35:03;;;;;;;5.67;2.67;;;3.90;99.90;;;;;;5046827;28;20448;-66
2023/01/16 08:37:32;;;;;;;6.57;2.45;;;4.00;99.90;;;;;;5033748;28;20125;-65
2023/01/16 08:39:58;;;;;;;9.05;2.63;;;4.00;99.90;;;;;;5036280;28;20509;-66
2023/01/16 08:53:28;;;;;;;8.18;2.42;;;4.10;99.90;;;;;;5044479;28;20041;-66
2023/01/16 08:55:54;;;;;;;6.40;1.90;;;4.10;99.90;;;;;;5036702;28;20056;-66
2023/01/16 08:58:22;;;;;;;4.83;1.90;;;4.10;99.90;;;;;;5034089;28;20769;-66
2023/01/16 09:00:49;;;;;;;6.13;2.17;;;4.20;99.90;;;;;;5039942;28;21594;-65
2023/01/16 09:03:18;;;;;;;;;;;4.20;99.90;;;;;;5041709;28;20126;-66
2023/01/16 09:05:44;;;;;;;4.93;2.03;;;4.20;99.90;;;;;;5042909;28;19923;-66
2023/01/16 09:08:10;;;;;;;7.27;2.77;;;4.20;99.90;;;;;;5041155;28;20479;-65
2023/01/16 09:10:36;;;;;;;5.35;2.33;;;4.20;99.90;;;;;;5039989;28;20032;-66
2023/01/16 09:15:46;;;;;;;5.30;2.55;;;4.20;99.90;;;;;;5034189;28;20403;-66
2023/01/16 09:18:12;;;;;;;9.77;2.73;;;4.30;99.90;;;;;;5026489;28;20043;-65
2023/01/16 09:20:38;;;;;;;6.00;2.03;;;4.30;99.90;;;;;;5044263;28;20041;-66
2023/01/16 09:23:04;;;;;;;6.30;2.63;;;4.30;99.90;;;;;;5044450;28;20051;-65
2023/01/16 09:25:31;;;;;;;9.02;2.25;;;4.30;99.90;;;;;;5040605;28;20405;-66
2023/01/16 09:27:58;;;;;;;6.07;2.05;;;4.40;99.90;;;;;;5042136;28;20059;-66
2023/01/16 09:30:24;;;;;;;;;;;4.40;99.90;;;;;;5037613;28;20483;-65
2023/01/16 09:32:49;;;;;;;3.90;1.95;;;4.40;99.90;;;;;;5041769;28;19925;-66
2023/01/16 09:35:15;;;;;;;5.93;1.70;;;4.40;99.90;;;;;;5044074;28;20092;-66
2023/01/16 09:37:45;;;;;;;6.45;2.15;;;4.40;99.90;;;;;;5043985;28;20081;-66
2023/01/16 09:40:17;;;;;;;5.20;1.98;;;4.40;99.90;;;;;;5044845;28;20490;-65
2023/01/16 09:45:46;;;;;;;4.07;1.90;;;4.50;99.90;;;;;;5041508;28;20072;-66
2023/01/16 09:48:18;;;;;;;6.28;2.05;;;4.50;99.90;;;;;;5045147;28;20043;-66
2023/01/16 09:50:52;;;;;;;3.47;1.70;;;4.50;99.90;;;;;;5034893;28;20048;-66
2023/01/16 09:59:23;;;;;;;5.18;2.10;;;4.50;99.90;;;;;;5039164;28;20124;-66
2023/01/16 10:02:15;;;;;;;5.60;2.05;;;4.50;99.90;;;;;;5017071;28;20049;-66
2023/01/16 10:04:42;;;;;;;6.45;2.00;;;4.50;99.90;;;;;;5043530;28;20041;-65
2023/01/16 10:07:31;;;;;;;5.93;2.03;;;4.50;99.90;;;;;;5045027;28;20088;-66
2023/01/16 10:10:02;;;;;;;5.38;2.08;;;4.60;99.90;;;;;;5026147;28;20063;-65
2023/01/16 10:12:35;;;;;;;4.05;1.90;;;4.50;99.90;;;;;;5044435;28;20077;-67
2023/01/16 10:15:30;;;;;;;5.60;1.77;;;4.50;99.90;;;;;;5045327;28;20452;-67
2023/01/16 10:18:23;;;;;;;3.88;1.55;;;4.60;99.90;;;;;;5036782;28;20045;-65
2023/01/16 10:21:11;;;;;;;4.00;1.65;;;4.50;99.90;;;;;;5038885;28;20452;-66
2023/01/16 10:23:51;;;;;;;3.88;1.73;;;4.60;99.90;;;;;;5041625;28;20112;-65
2023/01/16 10:26:30;;;;;;;5.72;1.67;;;4.50;99.90;;;;;;5050230;28;20049;-66
2023/01/16 10:29:20;;;;;;;4.75;2.00;;;4.60;99.90;;;;;;5039982;28;20047;-67
2023/01/16 10:32:27;;;;;;;3.15;1.52;;;4.60;99.90;;;;;;5039915;28;20124;-66
2023/01/16 10:35:06;;;;;;;3.78;1.63;;;4.60;99.90;;;;;;5041361;28;20048;-66
2023/01/16 10:37:35;;;;;;;3.17;1.38;;;4.70;99.90;;;;;;5037863;28;20037;-66
2023/01/16 10:40:34;;;;;;;4.07;1.33;;;4.70;99.90;;;;;;5038020;28;20041;-66
2023/01/16 10:51:25;;;;;;;4.57;1.25;;;4.60;99.90;;;;;;5046520;28;20068;-66
2023/01/16 10:53:51;;;;;;;1.57;0.90;;;4.50;99.90;;;;;;5045081;28;20129;-66
2023/01/16 10:56:17;;;;;;;3.83;0.60;;;4.50;99.90;;;;;;5047345;28;20069;-66
2023/01/16 10:58:43;;;;;;;3.38;1.27;;;4.50;99.90;;;;;;5043014;28;20526;-66
2023/01/16 11:01:16;;;;;;;2.10;0.63;;;4.50;99.90;;;;;;5043014;28;20060;-66
2023/01/16 11:03:48;;;;;;;4.47;0.98;;;4.40;99.90;;;;;;5045198;28;20056;-66
2023/01/16 11:06:28;;;;;;;1.77;0.80;;;4.40;99.90;;;;;;5048295;28;20454;-66
2023/01/16 11:09:03;;;;;;;2.42;0.80;;;4.40;99.90;;;;;;5046308;28;20037;-66
2023/01/16 11:20:33;;;;;;;1.13;0.40;;;4.20;99.90;;;;;;5038367;28;20049;-65
2023/01/16 11:23:12;;;;;;;1.35;0.50;;;4.20;99.90;;;;;;5044682;28;20468;-65
2023/01/16 11:25:38;;;;;;;2.38;0.70;;;4.20;99.90;;;;;;5043786;28;20043;-65
2023/01/16 11:28:08;;;;;;;1.60;0.40;;;4.20;99.90;;;;;;5043109;28;20064;-65
2023/01/16 11:30:40;;;;;;;1.05;0.30;;;4.20;99.90;;;;;;5044219;28;20077;-65
2023/01/16 11:33:14;;;;;;;0.85;0.60;;;4.10;99.90;;;;;;5045798;28;20045;-66
2023/01/16 11:35:47;;;;;;;1.85;0.57;;;4.10;99.90;;;;;;5046688;28;20036;-65
2023/01/16 11:38:14;;;;;;;0.82;0.43;;;4.10;99.90;;;;;;5045207;28;20084;-65
2023/01/16 11:40:46;;;;;;;1.95;0.55;;;4.10;99.90;;;;;;5035972;28;20052;-65
2023/01/16 11:46:30;;;;;;;0.57;0.40;;;4.10;99.90;;;;;;5040880;28;20549;-66
2023/01/16 11:49:17;;;;;;;2.15;0.65;;;4.10;99.90;;;;;;5043043;28;20041;-66
2023/01/16 11:51:43;;;;;;;;;;;4.10;99.90;;;;;;5042744;28;20045;-65
2023/01/16 11:54:19;;;;;;;2.38;0.60;;;4.10;99.90;;;;;;5041053;28;19923;-66
2023/01/16 11:56:58;;;;;;;0.60;0.60;;;4.10;99.90;;;;;;5042493;28;20045;-65
2023/01/16 12:00:15;;;;;;;1.85;0.93;;;4.10;99.90;;;;;;5056805;22;20036;-82
2023/01/16 12:03:14;;;;;;;1.70;0.90;;;4.10;99.90;;;;;;4993991;28;20081;-83
2023/01/16 12:06:22;;;;;;;2.50;0.85;;;4.10;99.90;;;;;;5000326;28;20434;-84
2023/01/16 12:09:19;;;;;;;2.13;0.95;;;4.10;99.90;;;;;;5007912;28;20077;-87
2023/01/16 12:15:23;;;;;;;1.35;0.70;;;4.10;99.90;;;;;;4996060;28;20545;-84
2023/01/16 12:18:35;;;;;;;2.30;0.88;;;4.10;99.90;;;;;;4986896;28;20075;-83
2023/01/16 12:21:05;;;;;;;1.42;0.80;;;4.10;99.90;;;;;;4989984;28;20568;-84
2023/01/16 12:23:49;;;;;;;2.63;0.85;;;4.10;99.90;;;;;;4969870;28;20034;-84
2023/01/16 12:26:20;;;;;;;1.52;0.88;;;4.10;99.90;;;;;;5007740;28;20038;-84
2023/01/16 12:29:06;;;;;;;4.35;0.90;;;4.10;99.90;;;;;;4982846;28;20034;-84
2023/01/16 12:32:02;;;;;;;1.50;0.90;;;4.10;99.90;;;;;;4989492;28;20037;-84
2023/01/16 12:35:02;;;;;;;1.20;0.80;;;4.10;99.90;;;;;;4974251;28;20034;-84
2023/01/16 12:38:04;;;;;;;1.23;0.82;;;4.10;99.90;;;;;;4969514;28;20290;-88
2023/01/16 12:40:39;;;;;;;1.55;0.90;;;4.20;99.90;;;;;;5003377;22;20541;-68
2023/01/16 12:43:33;;;;;;;3.50;1.10;;;4.20;99.90;;;;;;4974628;28;20427;-68
2023/01/16 12:46:02;;;;;;;2.30;1.00;;;4.20;99.90;;;;;;4980485;28;20038;-68
2023/01/16 12:48:41;;;;;;;1.90;1.15;;;4.20;99.90;;;;;;4987184;28;20408;-67
2023/01/16 12:51:27;;;;;;;1.73;1.20;;;4.20;99.90;;;;;;4976993;28;20357;-68
2023/01/16 12:54:02;;;;;;;1.13;0.73;;;4.20;99.90;;;;;;4988392;28;20099;-68
2023/01/16 12:57:10;;;;;;;1.95;1.23;;;4.20;99.90;;;;;;4984104;28;20400;-68
2023/01/16 12:59:42;;;;;;;1.63;0.93;;;4.30;99.90;;;;;;4977823;28;20042;-68
2023/01/16 13:02:34;;;;;;;2.20;0.98;;;4.30;99.90;;;;;;4981604;28;20057;-68
2023/01/16 13:05:18;;;;;;;1.35;0.95;;;4.30;99.90;;;;;;4977803;28;20050;-67
2023/01/16 13:07:58;;;;;;;1.48;0.82;;;4.30;99.90;;;;;;4974413;28;20617;-68
2023/01/16 13:13:40;;;;;;;1.73;1.17;;;4.40;99.90;;;;;;4981890;28;20046;-67
2023/01/16 13:16:32;;;;;;;3.08;1.40;;;4.40;99.90;;;;;;4979622;28;20149;-67
2023/01/16 13:19:03;;;;;;;1.48;0.90;;;4.40;99.90;;;;;;4980847;28;20111;-68
2023/01/16 13:21:34;;;;;;;1.88;1.08;;;4.40;99.90;;;;;;4973775;28;20045;-67
2023/01/16 13:24:20;;;;;;;2.67;1.25;;;4.40;99.90;;;;;;4981922;28;20038;-67
2023/01/16 13:26:53;;;;;;;3.40;1.40;;;4.40;99.90;;;;;;4977981;28;20034;-67
2023/01/16 13:29:54;;;;;;;1.90;1.30;;;4.50;99.90;;;;;;4990128;28;20443;-68
2023/01/16 13:32:29;;;;;;;2.00;1.20;;;4.50;99.90;;;;;;4975425;28;20046;-67
2023/01/16 13:35:13;;;;;;;1.45;1.02;;;4.50;99.90;;;;;;4980238;28;20045;-68
2023/01/16 13:37:57;;;;;;;4.00;1.17;;;4.50;99.90;;;;;;4980669;28;20302;-67
2023/01/16 13:40:59;;;;;;;3.17;1.20;;;4.60;99.90;;;;;;4984062;28;20038;-68
2023/01/16 13:46:16;;;;;;;3.17;1.40;;;4.60;99.90;;;;;;4980459;28;20081;-67
2023/01/16 13:48:44;;;;;;;;;;;4.60;99.90;;;;;;4990001;28;20049;-69
2023/01/16 13:51:25;;;;;;;2.40;1.33;;;4.60;99.90;;;;;;4987057;28;19918;-67
2023/01/16 13:53:57;;;;;;;2.25;1.33;;;4.60;99.90;;;;;;4987430;28;20098;-67
2023/01/16 13:56:24;;;;;;;3.10;1.42;;;4.60;99.90;;;;;;4988604;28;20472;-67
2023/01/16 13:59:02;;;;;;;2.92;1.50;;;4.70;99.90;;;;;;4978333;28;20084;-68
2023/01/16 14:01:30;;;;;;;3.80;1.75;;;4.70;99.90;;;;;;4982309;28;20121;-68
2023/01/16 14:04:14;;;;;;;3.50;2.03;;;4.70;99.90;;;;;;4987604;28;20046;-67
2023/01/16 14:10:16;;;;;;;2.25;1.73;;;4.70;99.90;;;;;;4985535;28;20046;-66
2023/01/16 14:12:59;;;;;;;4.78;1.75;;;4.70;99.90;;;;;;4984787;28;20042;-68
2023/01/16 14:18:46;;;;;;;2.40;1.58;;;4.70;99.90;;;;;;4985563;28;20515;-68
2023/01/16 14:21:20;;;;;;;3.25;1.65;;;4.70;99.90;;;;;;4984639;28;20481;-67
2023/01/16 14:24:01;;;;;;;3.33;1.90;;;4.70;99.90;;;;;;4990168;28;20057;-67
2023/01/16 14:26:29;;;;;;;2.95;1.88;;;4.80;99.90;;;;;;4990774;28;20154;-67
2023/01/16 14:28:55;;;;;;;3.53;1.60;;;4.70;99.90;;;;;;4984910;28;20400;-67
2023/01/16 14:31:24;;;;;;;4.73;2.10;;;4.70;99.90;;;;;;4995804;28;20035;-68
2023/01/16 14:33:52;;;;;;;3.80;2.10;;;4.70;99.90;;;;;;4994240;28;20508;-68
2023/01/16 14:36:22;;;;;;;4.03;2.60;;;4.80;99.90;;;;;;4994875;28;20472;-67